Portada
METAR-TAF:

METAR-TAF

Aeroports :

Asaluyeh, Iran

latitud: 27-22-46N, longitud: 52-44-15E, altitud: 8 m

Observació

L'informe es va fer fa 41 minuts, a les 10:00 UTC
Vent 10 kt del Oest/Sud-Oest
Temperatura 39°C
Humitat 54%
Pressió 996 hPa
Visibilitat: 6000 m
Escasses núvols a una alçada de 2000 ft

METAR: OIBP 171000Z 24010KT 6000 FEW020 39/28 Q0996 A2941

Hora: 15:11 (10:41 UTC)


TAF: manca

Observacions i pronòstics meteorològics de més de 4000 aeroports (METAR i TAF).

Les estacions disponibles són els punts grocs i vermells al mapa.

Posi el ratolí al punt desitjat per veure el nom de l'estació.

Feu clic per veure les observacions i els pronòstics meteorològics.

Per canviar el mapa: feu clic els botons verds amb una creu de color negre per apropar; al botó verd amb un guió per allunyar la imatge; o en les fletxes verdes per a mapes adjacents.


METAR-TAF: